This is the latest recevied weather packets stored in our database for station/object SP8EBC-11. If no packets are shown the sender has not sent any weather packets the latest 1 day(s).
| Time | Temp. | Humidity | Pressure | Rain* | Wind** | Luminosity | Snow |
|---|---|---|---|---|---|---|---|
| 1836274832 | 13.89° C | 10% | 1006.2 hPa | - | 0.89 m/s, 198° | - | - |
| 1836274712 | 13.89° C | 10% | 1006.2 hPa | - | 1.34 m/s, 197° | - | - |
| 1836274592 | 13.89° C | 10% | 1006.2 hPa | - | 1.34 m/s, 198° | - | - |
| 1836274564 | 13.89° C | 10% | 1006.3 hPa | - | 0.89 m/s, 195° | - | - |
| 1836274472 | 13.89° C | 10% | 1006.3 hPa | - | 1.34 m/s, 198° | - | - |
| 1836274444 | 13.89° C | 10% | 1006.3 hPa | - | 0.89 m/s, 198° | - | - |
| 1836274352 | 13.89° C | 10% | 1006.3 hPa | - | 1.34 m/s, 198° | - | - |
| 1836274323 | 13.89° C | 10% | 1006.3 hPa | - | 0.89 m/s, 198° | - | - |
| 1836274232 | 13.33° C | 10% | 1006.3 hPa | - | 1.34 m/s, 198° | - | - |
| 1836274202 | 13.89° C | 10% | 1006.2 hPa | - | 0.89 m/s, 197° | - | - |
| 1836274112 | 13.33° C | 10% | 1006.3 hPa | - | 1.34 m/s, 196° | - | - |
| 1836273992 | 13.33° C | 10% | 1006.2 hPa | - | 1.34 m/s, 193° | - | - |
| 1836273872 | 13.33° C | 10% | 1006.2 hPa | - | 1.34 m/s, 191° | - | - |
| 1778028522 | 10.56° C | 70% | 991.1 hPa | - | 4.02 m/s, 58° | - | - |
| 1778028403 | 10.56° C | 70% | 991 hPa | - | 4.47 m/s, 58° | - | - |
| 1778028282 | 10.56° C | 70% | 991 hPa | - | 5.36 m/s, 53° | - | - |
| 1778028162 | 10.56° C | 70% | 991 hPa | - | 5.36 m/s, 55° | - | - |
| 1778028047 | 10.56° C | 70% | 991 hPa | - | 4.92 m/s, 60° | - | - |
| 1778027922 | 10.56° C | 70% | 991 hPa | - | 4.92 m/s, 55° | - | - |
| 1778027802 | 10.56° C | 70% | 991 hPa | - | 5.36 m/s, 56° | - | - |
| 1778027682 | 10.56° C | 70% | 991 hPa | - | 5.36 m/s, 60° | - | - |
| 1778027562 | 10.56° C | 70% | 991 hPa | - | 4.92 m/s, 67° | - | - |
| 1778027442 | 10.56° C | 70% | 991 hPa | - | 4.47 m/s, 60° | - | - |
| 1778027321 | 10.56° C | 70% | 991 hPa | - | 4.92 m/s, 58° | - | - |
| 1778027201 | 10.56° C | 70% | 991.1 hPa | - | 5.36 m/s, 55° | - | - |
* Rain since midnight (hover to see other rain measurements)
** Current wind speed in m/s (hover to see current wind gust speed)